sensor_id;sensor_type;location;lat;lon;timestamp;P1;durP1;ratioP1;P2;durP2;ratioP2
30307;SDS011;17114;52.314;8.910;2023-03-26T00:01:23;10.55;;;4.07;;
30307;SDS011;17114;52.314;8.910;2023-03-26T00:03:51;13.18;;;3.78;;
30307;SDS011;17114;52.314;8.910;2023-03-26T00:06:27;9.93;;;4.00;;
30307;SDS011;17114;52.314;8.910;2023-03-26T00:09:02;12.27;;;3.83;;
30307;SDS011;17114;52.314;8.910;2023-03-26T00:11:31;9.50;;;3.60;;
30307;SDS011;17114;52.314;8.910;2023-03-26T00:13:59;8.35;;;2.75;;
30307;SDS011;17114;52.314;8.910;2023-03-26T00:16:27;8.35;;;2.42;;
30307;SDS011;17114;52.314;8.910;2023-03-26T00:18:55;6.85;;;2.20;;
30307;SDS011;17114;52.314;8.910;2023-03-26T00:21:23;8.23;;;2.00;;
30307;SDS011;17114;52.314;8.910;2023-03-26T00:23:54;3.67;;;1.77;;
30307;SDS011;17114;52.314;8.910;2023-03-26T00:26:25;6.38;;;2.42;;
30307;SDS011;17114;52.314;8.910;2023-03-26T00:28:54;4.95;;;2.15;;
30307;SDS011;17114;52.314;8.910;2023-03-26T00:31:22;9.07;;;2.20;;
30307;SDS011;17114;52.314;8.910;2023-03-26T00:33:50;12.75;;;2.10;;
30307;SDS011;17114;52.314;8.910;2023-03-26T00:36:22;10.75;;;2.45;;
30307;SDS011;17114;52.314;8.910;2023-03-26T00:38:53;8.90;;;3.22;;
30307;SDS011;17114;52.314;8.910;2023-03-26T00:41:22;6.47;;;1.70;;
30307;SDS011;17114;52.314;8.910;2023-03-26T00:43:52;6.20;;;1.85;;
30307;SDS011;17114;52.314;8.910;2023-03-26T00:46:24;11.05;;;2.10;;
30307;SDS011;17114;52.314;8.910;2023-03-26T00:48:55;6.25;;;1.50;;
30307;SDS011;17114;52.314;8.910;2023-03-26T00:51:25;5.68;;;1.65;;
30307;SDS011;17114;52.314;8.910;2023-03-26T00:53:56;8.60;;;2.38;;
30307;SDS011;17114;52.314;8.910;2023-03-26T00:56:29;7.93;;;2.13;;
30307;SDS011;17114;52.314;8.910;2023-03-26T00:59:00;4.18;;;2.08;;
30307;SDS011;17114;52.314;8.910;2023-03-26T01:01:27;4.75;;;2.38;;
30307;SDS011;17114;52.314;8.910;2023-03-26T01:03:57;5.78;;;1.70;;
30307;SDS011;17114;52.314;8.910;2023-03-26T01:06:43;5.53;;;1.67;;
30307;SDS011;17114;52.314;8.910;2023-03-26T01:09:12;7.40;;;2.08;;
30307;SDS011;17114;52.314;8.910;2023-03-26T01:11:48;9.75;;;1.77;;
30307;SDS011;17114;52.314;8.910;2023-03-26T01:14:17;10.85;;;2.75;;
30307;SDS011;17114;52.314;8.910;2023-03-26T01:16:53;10.02;;;2.10;;
30307;SDS011;17114;52.314;8.910;2023-03-26T01:22:15;9.35;;;2.00;;
30307;SDS011;17114;52.314;8.910;2023-03-26T01:24:44;8.48;;;1.60;;
30307;SDS011;17114;52.314;8.910;2023-03-26T01:38:52;8.75;;;1.77;;
30307;SDS011;17114;52.314;8.910;2023-03-26T01:41:36;8.73;;;1.80;;
30307;SDS011;17114;52.314;8.910;2023-03-26T01:47:03;8.48;;;1.95;;
30307;SDS011;17114;52.314;8.910;2023-03-26T01:49:31;7.15;;;2.03;;
30307;SDS011;17114;52.314;8.910;2023-03-26T01:51:58;11.32;;;2.03;;
30307;SDS011;17114;52.314;8.910;2023-03-26T01:54:26;10.38;;;2.50;;
30307;SDS011;17114;52.314;8.910;2023-03-26T02:02:15;9.15;;;2.75;;
30307;SDS011;17114;52.314;8.910;2023-03-26T02:05:25;12.88;;;3.10;;
30307;SDS011;17114;52.314;8.910;2023-03-26T02:10:28;8.88;;;2.63;;
30307;SDS011;17114;52.314;8.910;2023-03-26T02:12:57;9.75;;;2.85;;
30307;SDS011;17114;52.314;8.910;2023-03-26T02:15:24;10.38;;;3.17;;
30307;SDS011;17114;52.314;8.910;2023-03-26T02:17:51;9.52;;;3.03;;
30307;SDS011;17114;52.314;8.910;2023-03-26T02:20:19;12.52;;;2.90;;
30307;SDS011;17114;52.314;8.910;2023-03-26T02:22:46;14.52;;;3.42;;
30307;SDS011;17114;52.314;8.910;2023-03-26T02:25:15;14.50;;;3.00;;
30307;SDS011;17114;52.314;8.910;2023-03-26T02:27:44;9.23;;;3.38;;
30307;SDS011;17114;52.314;8.910;2023-03-26T02:30:12;10.43;;;3.15;;
30307;SDS011;17114;52.314;8.910;2023-03-26T02:32:44;15.07;;;3.45;;
30307;SDS011;17114;52.314;8.910;2023-03-26T02:35:11;8.32;;;2.65;;
30307;SDS011;17114;52.314;8.910;2023-03-26T02:37:38;10.98;;;3.10;;
30307;SDS011;17114;52.314;8.910;2023-03-26T02:40:10;12.05;;;2.75;;
30307;SDS011;17114;52.314;8.910;2023-03-26T02:42:37;11.00;;;2.97;;
30307;SDS011;17114;52.314;8.910;2023-03-26T02:45:05;11.38;;;2.60;;
30307;SDS011;17114;52.314;8.910;2023-03-26T02:47:32;6.03;;;2.70;;
30307;SDS011;17114;52.314;8.910;2023-03-26T02:49:59;8.43;;;2.75;;
30307;SDS011;17114;52.314;8.910;2023-03-26T02:52:26;10.75;;;3.50;;
30307;SDS011;17114;52.314;8.910;2023-03-26T02:54:53;9.02;;;2.80;;
30307;SDS011;17114;52.314;8.910;2023-03-26T02:57:20;8.40;;;2.72;;
30307;SDS011;17114;52.314;8.910;2023-03-26T02:59:48;10.15;;;2.67;;
30307;SDS011;17114;52.314;8.910;2023-03-26T03:02:15;9.60;;;2.92;;
30307;SDS011;17114;52.314;8.910;2023-03-26T03:04:43;5.68;;;2.45;;
30307;SDS011;17114;52.314;8.910;2023-03-26T03:07:15;7.55;;;2.58;;
30307;SDS011;17114;52.314;8.910;2023-03-26T03:09:42;11.02;;;2.55;;
30307;SDS011;17114;52.314;8.910;2023-03-26T03:12:09;10.15;;;2.42;;
30307;SDS011;17114;52.314;8.910;2023-03-26T03:14:36;8.43;;;2.67;;
30307;SDS011;17114;52.314;8.910;2023-03-26T03:17:03;13.15;;;3.00;;
30307;SDS011;17114;52.314;8.910;2023-03-26T03:19:30;12.80;;;3.17;;
30307;SDS011;17114;52.314;8.910;2023-03-26T03:21:57;14.52;;;3.42;;
30307;SDS011;17114;52.314;8.910;2023-03-26T03:24:23;9.13;;;3.60;;
30307;SDS011;17114;52.314;8.910;2023-03-26T03:26:52;17.63;;;3.70;;
30307;SDS011;17114;52.314;8.910;2023-03-26T03:29:22;9.68;;;3.30;;
30307;SDS011;17114;52.314;8.910;2023-03-26T03:31:49;13.25;;;3.67;;
30307;SDS011;17114;52.314;8.910;2023-03-26T03:34:16;18.08;;;4.28;;
30307;SDS011;17114;52.314;8.910;2023-03-26T03:36:42;13.27;;;3.33;;
30307;SDS011;17114;52.314;8.910;2023-03-26T03:39:14;14.73;;;4.57;;
30307;SDS011;17114;52.314;8.910;2023-03-26T03:41:41;17.85;;;4.55;;
30307;SDS011;17114;52.314;8.910;2023-03-26T03:44:07;12.07;;;4.90;;
30307;SDS011;17114;52.314;8.910;2023-03-26T03:46:34;17.83;;;4.70;;
30307;SDS011;17114;52.314;8.910;2023-03-26T03:49:02;25.08;;;6.13;;
30307;SDS011;17114;52.314;8.910;2023-03-26T03:51:29;18.88;;;5.43;;
30307;SDS011;17114;52.314;8.910;2023-03-26T03:53:56;26.95;;;7.50;;
30307;SDS011;17114;52.314;8.910;2023-03-26T03:56:23;18.45;;;6.57;;
30307;SDS011;17114;52.314;8.910;2023-03-26T03:58:51;20.02;;;6.40;;
30307;SDS011;17114;52.314;8.910;2023-03-26T04:01:18;17.92;;;6.53;;
30307;SDS011;17114;52.314;8.910;2023-03-26T04:03:47;16.30;;;5.72;;
30307;SDS011;17114;52.314;8.910;2023-03-26T04:06:15;14.55;;;5.90;;
30307;SDS011;17114;52.314;8.910;2023-03-26T04:08:45;21.95;;;6.10;;
30307;SDS011;17114;52.314;8.910;2023-03-26T04:11:12;18.75;;;5.90;;
30307;SDS011;17114;52.314;8.910;2023-03-26T04:13:39;17.13;;;5.88;;
30307;SDS011;17114;52.314;8.910;2023-03-26T04:16:07;24.15;;;6.47;;
30307;SDS011;17114;52.314;8.910;2023-03-26T04:18:34;21.98;;;5.93;;
30307;SDS011;17114;52.314;8.910;2023-03-26T04:21:03;19.50;;;7.63;;
30307;SDS011;17114;52.314;8.910;2023-03-26T04:23:32;22.45;;;7.28;;
30307;SDS011;17114;52.314;8.910;2023-03-26T04:26:00;18.55;;;7.10;;
30307;SDS011;17114;52.314;8.910;2023-03-26T04:28:31;20.75;;;6.57;;
30307;SDS011;17114;52.314;8.910;2023-03-26T04:31:08;25.52;;;7.35;;
30307;SDS011;17114;52.314;8.910;2023-03-26T04:33:39;19.17;;;6.35;;
30307;SDS011;17114;52.314;8.910;2023-03-26T04:36:06;22.58;;;6.57;;
30307;SDS011;17114;52.314;8.910;2023-03-26T04:38:39;17.90;;;5.65;;
30307;SDS011;17114;52.314;8.910;2023-03-26T04:41:11;19.33;;;7.32;;
30307;SDS011;17114;52.314;8.910;2023-03-26T04:43:39;16.98;;;6.88;;
30307;SDS011;17114;52.314;8.910;2023-03-26T04:46:08;25.13;;;8.13;;
30307;SDS011;17114;52.314;8.910;2023-03-26T04:48:36;28.83;;;8.32;;
30307;SDS011;17114;52.314;8.910;2023-03-26T04:51:05;22.08;;;8.05;;
30307;SDS011;17114;52.314;8.910;2023-03-26T04:53:32;21.13;;;8.30;;
30307;SDS011;17114;52.314;8.910;2023-03-26T04:56:16;20.58;;;7.10;;
30307;SDS011;17114;52.314;8.910;2023-03-26T04:58:53;15.73;;;6.85;;
30307;SDS011;17114;52.314;8.910;2023-03-26T05:01:22;19.35;;;6.32;;
30307;SDS011;17114;52.314;8.910;2023-03-26T05:03:49;19.30;;;6.57;;
30307;SDS011;17114;52.314;8.910;2023-03-26T05:06:16;16.45;;;6.18;;
30307;SDS011;17114;52.314;8.910;2023-03-26T05:08:43;16.90;;;5.75;;
30307;SDS011;17114;52.314;8.910;2023-03-26T05:11:10;10.77;;;4.75;;
30307;SDS011;17114;52.314;8.910;2023-03-26T05:13:37;14.65;;;5.15;;
30307;SDS011;17114;52.314;8.910;2023-03-26T05:16:04;16.50;;;5.32;;
30307;SDS011;17114;52.314;8.910;2023-03-26T05:18:31;14.68;;;5.28;;
30307;SDS011;17114;52.314;8.910;2023-03-26T05:20:58;15.90;;;6.10;;
30307;SDS011;17114;52.314;8.910;2023-03-26T05:23:25;12.80;;;5.38;;
30307;SDS011;17114;52.314;8.910;2023-03-26T05:25:52;14.20;;;5.47;;
30307;SDS011;17114;52.314;8.910;2023-03-26T05:28:19;17.17;;;6.25;;
30307;SDS011;17114;52.314;8.910;2023-03-26T05:30:50;14.65;;;5.72;;
30307;SDS011;17114;52.314;8.910;2023-03-26T05:33:19;16.00;;;5.60;;
30307;SDS011;17114;52.314;8.910;2023-03-26T05:35:46;13.98;;;5.20;;
30307;SDS011;17114;52.314;8.910;2023-03-26T05:38:23;21.40;;;6.75;;
30307;SDS011;17114;52.314;8.910;2023-03-26T05:40:50;18.73;;;7.45;;
30307;SDS011;17114;52.314;8.910;2023-03-26T05:43:22;22.52;;;6.43;;
30307;SDS011;17114;52.314;8.910;2023-03-26T05:45:49;19.75;;;6.78;;
30307;SDS011;17114;52.314;8.910;2023-03-26T05:48:15;15.25;;;6.22;;
30307;SDS011;17114;52.314;8.910;2023-03-26T05:50:42;16.58;;;5.47;;
30307;SDS011;17114;52.314;8.910;2023-03-26T05:53:09;14.88;;;5.60;;
30307;SDS011;17114;52.314;8.910;2023-03-26T05:55:36;13.63;;;5.90;;
30307;SDS011;17114;52.314;8.910;2023-03-26T05:58:05;15.07;;;6.15;;
30307;SDS011;17114;52.314;8.910;2023-03-26T06:00:32;10.93;;;5.63;;
30307;SDS011;17114;52.314;8.910;2023-03-26T06:03:02;18.05;;;7.00;;
30307;SDS011;17114;52.314;8.910;2023-03-26T06:05:33;21.05;;;6.88;;
30307;SDS011;17114;52.314;8.910;2023-03-26T06:08:02;19.15;;;6.95;;
30307;SDS011;17114;52.314;8.910;2023-03-26T06:10:29;18.20;;;6.75;;
30307;SDS011;17114;52.314;8.910;2023-03-26T06:12:57;23.48;;;7.38;;
30307;SDS011;17114;52.314;8.910;2023-03-26T06:15:23;17.77;;;6.75;;
30307;SDS011;17114;52.314;8.910;2023-03-26T06:17:50;18.30;;;6.43;;
30307;SDS011;17114;52.314;8.910;2023-03-26T06:20:17;20.13;;;6.53;;
30307;SDS011;17114;52.314;8.910;2023-03-26T06:22:44;17.50;;;6.40;;
30307;SDS011;17114;52.314;8.910;2023-03-26T06:25:11;14.35;;;5.80;;
30307;SDS011;17114;52.314;8.910;2023-03-26T06:27:38;18.00;;;6.45;;
30307;SDS011;17114;52.314;8.910;2023-03-26T06:30:05;17.52;;;5.35;;
30307;SDS011;17114;52.314;8.910;2023-03-26T06:32:32;20.33;;;5.32;;
30307;SDS011;17114;52.314;8.910;2023-03-26T06:34:59;15.23;;;5.28;;
30307;SDS011;17114;52.314;8.910;2023-03-26T06:37:28;15.80;;;6.00;;
30307;SDS011;17114;52.314;8.910;2023-03-26T06:39:55;20.35;;;6.43;;
30307;SDS011;17114;52.314;8.910;2023-03-26T06:42:22;18.63;;;6.30;;
30307;SDS011;17114;52.314;8.910;2023-03-26T06:45:09;18.25;;;5.90;;
30307;SDS011;17114;52.314;8.910;2023-03-26T06:47:36;19.52;;;6.00;;
30307;SDS011;17114;52.314;8.910;2023-03-26T06:50:03;17.17;;;6.75;;
30307;SDS011;17114;52.314;8.910;2023-03-26T06:52:30;20.83;;;6.35;;
30307;SDS011;17114;52.314;8.910;2023-03-26T06:54:57;15.60;;;5.68;;
30307;SDS011;17114;52.314;8.910;2023-03-26T06:57:24;20.35;;;6.47;;
30307;SDS011;17114;52.314;8.910;2023-03-26T06:59:51;16.20;;;6.03;;
30307;SDS011;17114;52.314;8.910;2023-03-26T07:02:18;19.00;;;5.72;;
30307;SDS011;17114;52.314;8.910;2023-03-26T07:04:45;18.27;;;5.10;;
30307;SDS011;17114;52.314;8.910;2023-03-26T07:07:12;13.80;;;5.18;;
30307;SDS011;17114;52.314;8.910;2023-03-26T07:09:39;15.23;;;5.25;;
30307;SDS011;17114;52.314;8.910;2023-03-26T07:12:06;11.55;;;5.20;;
30307;SDS011;17114;52.314;8.910;2023-03-26T07:14:33;22.02;;;6.55;;
30307;SDS011;17114;52.314;8.910;2023-03-26T07:16:59;20.52;;;5.95;;
30307;SDS011;17114;52.314;8.910;2023-03-26T07:19:27;16.27;;;5.90;;
30307;SDS011;17114;52.314;8.910;2023-03-26T07:21:53;14.50;;;5.40;;
30307;SDS011;17114;52.314;8.910;2023-03-26T07:24:20;16.13;;;7.03;;
30307;SDS011;17114;52.314;8.910;2023-03-26T07:30:02;17.10;;;5.78;;
30307;SDS011;17114;52.314;8.910;2023-03-26T07:43:12;11.90;;;3.00;;
30307;SDS011;17114;52.314;8.910;2023-03-26T07:45:46;11.43;;;3.78;;
30307;SDS011;17114;52.314;8.910;2023-03-26T07:48:18;15.52;;;4.00;;
30307;SDS011;17114;52.314;8.910;2023-03-26T07:50:50;9.57;;;3.33;;
30307;SDS011;17114;52.314;8.910;2023-03-26T07:53:18;16.75;;;4.32;;
30307;SDS011;17114;52.314;8.910;2023-03-26T08:07:02;16.75;;;4.90;;
30307;SDS011;17114;52.314;8.910;2023-03-26T08:14:51;17.73;;;4.55;;
30307;SDS011;17114;52.314;8.910;2023-03-26T08:20:31;14.18;;;4.57;;
30307;SDS011;17114;52.314;8.910;2023-03-26T08:28:35;11.52;;;4.13;;
30307;SDS011;17114;52.314;8.910;2023-03-26T08:31:09;16.13;;;4.47;;
30307;SDS011;17114;52.314;8.910;2023-03-26T08:33:39;18.02;;;4.47;;
30307;SDS011;17114;52.314;8.910;2023-03-26T08:36:06;10.35;;;3.80;;
30307;SDS011;17114;52.314;8.910;2023-03-26T08:38:34;13.68;;;4.38;;
30307;SDS011;17114;52.314;8.910;2023-03-26T08:46:35;9.43;;;3.80;;
30307;SDS011;17114;52.314;8.910;2023-03-26T09:00:36;17.58;;;4.97;;
30307;SDS011;17114;52.314;8.910;2023-03-26T09:03:27;18.85;;;5.28;;
30307;SDS011;17114;52.314;8.910;2023-03-26T09:12:13;10.00;;;4.40;;
30307;SDS011;17114;52.314;8.910;2023-03-26T09:18:18;7.80;;;3.97;;
30307;SDS011;17114;52.314;8.910;2023-03-26T09:26:49;12.90;;;4.50;;
30307;SDS011;17114;52.314;8.910;2023-03-26T09:46:32;10.25;;;3.90;;
30307;SDS011;17114;52.314;8.910;2023-03-26T09:57:53;12.90;;;4.40;;
30307;SDS011;17114;52.314;8.910;2023-03-26T10:31:01;10.23;;;2.67;;
30307;SDS011;17114;52.314;8.910;2023-03-26T10:39:32;9.60;;;2.70;;
30307;SDS011;17114;52.314;8.910;2023-03-26T10:42:48;9.43;;;2.75;;
30307;SDS011;17114;52.314;8.910;2023-03-26T10:48:23;5.82;;;2.05;;
30307;SDS011;17114;52.314;8.910;2023-03-26T10:53:46;9.20;;;2.78;;
30307;SDS011;17114;52.314;8.910;2023-03-26T10:56:24;11.05;;;2.67;;
30307;SDS011;17114;52.314;8.910;2023-03-26T10:58:54;8.18;;;2.53;;
30307;SDS011;17114;52.314;8.910;2023-03-26T11:01:34;11.77;;;2.95;;
30307;SDS011;17114;52.314;8.910;2023-03-26T11:09:41;10.23;;;2.80;;
30307;SDS011;17114;52.314;8.910;2023-03-26T11:15:19;8.48;;;2.40;;
30307;SDS011;17114;52.314;8.910;2023-03-26T11:18:27;10.35;;;3.35;;
30307;SDS011;17114;52.314;8.910;2023-03-26T11:24:53;9.05;;;2.97;;
30307;SDS011;17114;52.314;8.910;2023-03-26T11:40:59;7.80;;;2.50;;
30307;SDS011;17114;52.314;8.910;2023-03-26T11:43:30;9.77;;;3.10;;
30307;SDS011;17114;52.314;8.910;2023-03-26T11:46:11;5.97;;;2.60;;
30307;SDS011;17114;52.314;8.910;2023-03-26T11:48:57;8.88;;;2.80;;
30307;SDS011;17114;52.314;8.910;2023-03-26T11:51:33;7.70;;;3.00;;
30307;SDS011;17114;52.314;8.910;2023-03-26T11:54:05;6.97;;;2.30;;
30307;SDS011;17114;52.314;8.910;2023-03-26T11:59:36;8.75;;;2.95;;
30307;SDS011;17114;52.314;8.910;2023-03-26T12:02:27;4.68;;;2.40;;
30307;SDS011;17114;52.314;8.910;2023-03-26T12:07:59;10.52;;;3.00;;
30307;SDS011;17114;52.314;8.910;2023-03-26T12:10:34;9.52;;;3.72;;
30307;SDS011;17114;52.314;8.910;2023-03-26T12:13:21;7.45;;;3.20;;
30307;SDS011;17114;52.314;8.910;2023-03-26T12:15:57;11.10;;;3.40;;
30307;SDS011;17114;52.314;8.910;2023-03-26T12:18:31;8.80;;;3.03;;
30307;SDS011;17114;52.314;8.910;2023-03-26T12:21:12;6.97;;;3.78;;
30307;SDS011;17114;52.314;8.910;2023-03-26T12:23:42;12.55;;;3.28;;
30307;SDS011;17114;52.314;8.910;2023-03-26T12:26:17;9.00;;;3.63;;
30307;SDS011;17114;52.314;8.910;2023-03-26T12:28:48;15.68;;;3.88;;
30307;SDS011;17114;52.314;8.910;2023-03-26T12:31:16;12.07;;;3.20;;
30307;SDS011;17114;52.314;8.910;2023-03-26T12:34:28;12.68;;;3.72;;
30307;SDS011;17114;52.314;8.910;2023-03-26T12:36:52;15.45;;;3.75;;
30307;SDS011;17114;52.314;8.910;2023-03-26T12:39:27;12.90;;;3.60;;
30307;SDS011;17114;52.314;8.910;2023-03-26T12:42:24;11.48;;;4.03;;
30307;SDS011;17114;52.314;8.910;2023-03-26T12:45:13;9.93;;;4.10;;
30307;SDS011;17114;52.314;8.910;2023-03-26T12:47:40;10.98;;;4.40;;
30307;SDS011;17114;52.314;8.910;2023-03-26T12:50:32;15.68;;;4.60;;
30307;SDS011;17114;52.314;8.910;2023-03-26T12:58:28;11.88;;;5.43;;
30307;SDS011;17114;52.314;8.910;2023-03-26T13:06:56;13.32;;;4.80;;
30307;SDS011;17114;52.314;8.910;2023-03-26T13:09:31;16.30;;;5.40;;
30307;SDS011;17114;52.314;8.910;2023-03-26T13:12:12;15.23;;;4.68;;
30307;SDS011;17114;52.314;8.910;2023-03-26T13:22:50;19.10;;;4.90;;
30307;SDS011;17114;52.314;8.910;2023-03-26T13:36:40;19.15;;;7.30;;
30307;SDS011;17114;52.314;8.910;2023-03-26T13:39:45;29.55;;;7.82;;
30307;SDS011;17114;52.314;8.910;2023-03-26T13:42:37;18.23;;;7.32;;
30307;SDS011;17114;52.314;8.910;2023-03-26T13:48:09;18.73;;;5.95;;
30307;SDS011;17114;52.314;8.910;2023-03-26T13:50:41;12.95;;;5.15;;
30307;SDS011;17114;52.314;8.910;2023-03-26T13:53:24;23.20;;;6.30;;
30307;SDS011;17114;52.314;8.910;2023-03-26T13:55:58;12.32;;;4.20;;
30307;SDS011;17114;52.314;8.910;2023-03-26T13:58:37;15.25;;;4.32;;
30307;SDS011;17114;52.314;8.910;2023-03-26T14:01:30;12.87;;;4.07;;
30307;SDS011;17114;52.314;8.910;2023-03-26T14:04:12;17.20;;;4.70;;
30307;SDS011;17114;52.314;8.910;2023-03-26T14:07:02;15.23;;;4.50;;
30307;SDS011;17114;52.314;8.910;2023-03-26T14:18:34;14.77;;;4.57;;
30307;SDS011;17114;52.314;8.910;2023-03-26T14:35:35;18.38;;;5.18;;
30307;SDS011;17114;52.314;8.910;2023-03-26T14:41:17;12.55;;;4.28;;
30307;SDS011;17114;52.314;8.910;2023-03-26T14:44:11;14.02;;;4.32;;
30307;SDS011;17114;52.314;8.910;2023-03-26T14:52:49;13.23;;;2.80;;
30307;SDS011;17114;52.314;8.910;2023-03-26T15:03:51;12.63;;;2.83;;
30307;SDS011;17114;52.314;8.910;2023-03-26T15:37:23;14.43;;;3.90;;
30307;SDS011;17114;52.314;8.910;2023-03-26T15:50:43;14.30;;;4.47;;
30307;SDS011;17114;52.314;8.910;2023-03-26T15:53:26;21.05;;;4.85;;
30307;SDS011;17114;52.314;8.910;2023-03-26T16:04:37;16.48;;;4.72;;
30307;SDS011;17114;52.314;8.910;2023-03-26T16:15:45;16.63;;;4.30;;
30307;SDS011;17114;52.314;8.910;2023-03-26T16:18:28;20.50;;;3.28;;
30307;SDS011;17114;52.314;8.910;2023-03-26T16:26:39;18.23;;;3.55;;
30307;SDS011;17114;52.314;8.910;2023-03-26T16:29:25;15.55;;;3.60;;
30307;SDS011;17114;52.314;8.910;2023-03-26T16:34:46;16.40;;;3.10;;
30307;SDS011;17114;52.314;8.910;2023-03-26T16:37:40;20.30;;;3.17;;
30307;SDS011;17114;52.314;8.910;2023-03-26T16:48:24;14.00;;;2.67;;
30307;SDS011;17114;52.314;8.910;2023-03-26T16:51:05;16.88;;;3.20;;
30307;SDS011;17114;52.314;8.910;2023-03-26T17:02:34;25.67;;;3.47;;
30307;SDS011;17114;52.314;8.910;2023-03-26T17:05:32;17.13;;;3.70;;
30307;SDS011;17114;52.314;8.910;2023-03-26T17:08:17;16.48;;;2.72;;
30307;SDS011;17114;52.314;8.910;2023-03-26T17:11:05;20.10;;;3.65;;
30307;SDS011;17114;52.314;8.910;2023-03-26T17:16:28;15.15;;;2.63;;
30307;SDS011;17114;52.314;8.910;2023-03-26T17:30:00;20.35;;;3.28;;
30307;SDS011;17114;52.314;8.910;2023-03-26T17:33:05;18.38;;;2.70;;
30307;SDS011;17114;52.314;8.910;2023-03-26T17:35:35;15.52;;;2.88;;
30307;SDS011;17114;52.314;8.910;2023-03-26T17:46:40;25.95;;;5.63;;
30307;SDS011;17114;52.314;8.910;2023-03-26T17:49:05;20.95;;;7.93;;
30307;SDS011;17114;52.314;8.910;2023-03-26T17:57:05;19.50;;;3.40;;
30307;SDS011;17114;52.314;8.910;2023-03-26T17:59:39;21.25;;;4.13;;
30307;SDS011;17114;52.314;8.910;2023-03-26T18:02:11;23.80;;;4.45;;
30307;SDS011;17114;52.314;8.910;2023-03-26T18:04:42;17.98;;;4.13;;
30307;SDS011;17114;52.314;8.910;2023-03-26T18:16:17;20.25;;;3.45;;
30307;SDS011;17114;52.314;8.910;2023-03-26T18:18:56;18.13;;;3.03;;
30307;SDS011;17114;52.314;8.910;2023-03-26T18:21:31;10.80;;;1.75;;
30307;SDS011;17114;52.314;8.910;2023-03-26T18:24:06;21.40;;;3.88;;
30307;SDS011;17114;52.314;8.910;2023-03-26T18:26:50;17.25;;;5.35;;
30307;SDS011;17114;52.314;8.910;2023-03-26T18:29:44;14.45;;;3.55;;
30307;SDS011;17114;52.314;8.910;2023-03-26T18:32:29;16.30;;;3.47;;
30307;SDS011;17114;52.314;8.910;2023-03-26T18:35:00;17.30;;;4.07;;
30307;SDS011;17114;52.314;8.910;2023-03-26T18:37:39;16.70;;;3.17;;
30307;SDS011;17114;52.314;8.910;2023-03-26T18:40:13;22.40;;;2.60;;
30307;SDS011;17114;52.314;8.910;2023-03-26T18:42:48;21.17;;;3.22;;
30307;SDS011;17114;52.314;8.910;2023-03-26T18:48:00;29.25;;;4.30;;
30307;SDS011;17114;52.314;8.910;2023-03-26T18:50:33;11.75;;;2.53;;
30307;SDS011;17114;52.314;8.910;2023-03-26T18:53:08;16.35;;;2.70;;
30307;SDS011;17114;52.314;8.910;2023-03-26T18:55:42;22.48;;;3.00;;
30307;SDS011;17114;52.314;8.910;2023-03-26T18:58:28;16.58;;;3.03;;
30307;SDS011;17114;52.314;8.910;2023-03-26T19:00:59;17.40;;;2.13;;
30307;SDS011;17114;52.314;8.910;2023-03-26T19:03:49;12.50;;;2.95;;
30307;SDS011;17114;52.314;8.910;2023-03-26T19:06:17;18.35;;;2.33;;
30307;SDS011;17114;52.314;8.910;2023-03-26T19:08:46;14.13;;;2.10;;
30307;SDS011;17114;52.314;8.910;2023-03-26T19:11:15;19.35;;;2.67;;
30307;SDS011;17114;52.314;8.910;2023-03-26T19:13:43;14.43;;;2.42;;
30307;SDS011;17114;52.314;8.910;2023-03-26T19:18:48;20.02;;;2.60;;
30307;SDS011;17114;52.314;8.910;2023-03-26T19:21:16;11.63;;;3.30;;
30307;SDS011;17114;52.314;8.910;2023-03-26T19:23:46;14.07;;;3.47;;
30307;SDS011;17114;52.314;8.910;2023-03-26T19:26:13;17.33;;;3.47;;
30307;SDS011;17114;52.314;8.910;2023-03-26T19:28:47;17.23;;;2.53;;
30307;SDS011;17114;52.314;8.910;2023-03-26T19:36:27;11.88;;;2.85;;
30307;SDS011;17114;52.314;8.910;2023-03-26T19:43:59;18.50;;;3.13;;
30307;SDS011;17114;52.314;8.910;2023-03-26T19:46:33;12.00;;;2.15;;
30307;SDS011;17114;52.314;8.910;2023-03-26T19:49:38;19.70;;;3.15;;
30307;SDS011;17114;52.314;8.910;2023-03-26T19:52:14;14.77;;;2.50;;
30307;SDS011;17114;52.314;8.910;2023-03-26T19:57:35;18.00;;;2.38;;
30307;SDS011;17114;52.314;8.910;2023-03-26T20:00:03;13.35;;;2.10;;
30307;SDS011;17114;52.314;8.910;2023-03-26T20:02:39;19.65;;;2.60;;
30307;SDS011;17114;52.314;8.910;2023-03-26T20:05:21;19.98;;;4.03;;
30307;SDS011;17114;52.314;8.910;2023-03-26T20:07:57;11.85;;;2.45;;
30307;SDS011;17114;52.314;8.910;2023-03-26T20:10:26;17.13;;;2.85;;
30307;SDS011;17114;52.314;8.910;2023-03-26T20:12:53;16.13;;;2.88;;
30307;SDS011;17114;52.314;8.910;2023-03-26T20:15:21;11.68;;;2.20;;
30307;SDS011;17114;52.314;8.910;2023-03-26T20:17:50;18.25;;;2.92;;
30307;SDS011;17114;52.314;8.910;2023-03-26T20:20:20;11.43;;;2.25;;
30307;SDS011;17114;52.314;8.910;2023-03-26T20:22:50;10.38;;;2.78;;
30307;SDS011;17114;52.314;8.910;2023-03-26T20:25:23;15.93;;;3.03;;
30307;SDS011;17114;52.314;8.910;2023-03-26T20:27:56;17.27;;;3.22;;
30307;SDS011;17114;52.314;8.910;2023-03-26T20:30:24;14.23;;;2.28;;
30307;SDS011;17114;52.314;8.910;2023-03-26T20:33:03;15.63;;;3.25;;
30307;SDS011;17114;52.314;8.910;2023-03-26T20:35:39;15.57;;;2.50;;
30307;SDS011;17114;52.314;8.910;2023-03-26T20:38:06;14.40;;;2.75;;
30307;SDS011;17114;52.314;8.910;2023-03-26T20:40:35;18.30;;;2.10;;
30307;SDS011;17114;52.314;8.910;2023-03-26T20:43:04;15.57;;;2.72;;
30307;SDS011;17114;52.314;8.910;2023-03-26T20:45:38;15.65;;;3.78;;
30307;SDS011;17114;52.314;8.910;2023-03-26T20:48:06;15.35;;;2.85;;
30307;SDS011;17114;52.314;8.910;2023-03-26T20:50:38;20.40;;;2.72;;
30307;SDS011;17114;52.314;8.910;2023-03-26T20:53:16;15.00;;;2.83;;
30307;SDS011;17114;52.314;8.910;2023-03-26T20:55:44;20.08;;;2.67;;
30307;SDS011;17114;52.314;8.910;2023-03-26T20:58:17;14.15;;;2.15;;
30307;SDS011;17114;52.314;8.910;2023-03-26T21:00:58;9.98;;;2.03;;
30307;SDS011;17114;52.314;8.910;2023-03-26T21:03:26;16.75;;;2.40;;
30307;SDS011;17114;52.314;8.910;2023-03-26T21:05:53;11.15;;;2.45;;
30307;SDS011;17114;52.314;8.910;2023-03-26T21:08:26;8.75;;;2.20;;
30307;SDS011;17114;52.314;8.910;2023-03-26T21:11:01;9.88;;;1.98;;
30307;SDS011;17114;52.314;8.910;2023-03-26T21:13:38;17.50;;;2.95;;
30307;SDS011;17114;52.314;8.910;2023-03-26T21:16:15;9.50;;;1.80;;
30307;SDS011;17114;52.314;8.910;2023-03-26T21:18:42;14.75;;;2.78;;
30307;SDS011;17114;52.314;8.910;2023-03-26T21:29:41;17.13;;;2.88;;
30307;SDS011;17114;52.314;8.910;2023-03-26T21:32:09;8.82;;;2.13;;
30307;SDS011;17114;52.314;8.910;2023-03-26T21:34:37;12.10;;;2.53;;
30307;SDS011;17114;52.314;8.910;2023-03-26T21:37:21;12.73;;;2.33;;
30307;SDS011;17114;52.314;8.910;2023-03-26T21:39:48;16.02;;;2.63;;
30307;SDS011;17114;52.314;8.910;2023-03-26T21:42:15;14.13;;;2.55;;
30307;SDS011;17114;52.314;8.910;2023-03-26T21:44:43;17.65;;;2.00;;
30307;SDS011;17114;52.314;8.910;2023-03-26T21:47:10;10.52;;;2.50;;
30307;SDS011;17114;52.314;8.910;2023-03-26T21:49:37;10.82;;;2.47;;
30307;SDS011;17114;52.314;8.910;2023-03-26T21:52:04;19.40;;;2.75;;
30307;SDS011;17114;52.314;8.910;2023-03-26T21:54:33;15.25;;;2.63;;
30307;SDS011;17114;52.314;8.910;2023-03-26T22:05:22;9.07;;;2.03;;
30307;SDS011;17114;52.314;8.910;2023-03-26T22:07:55;16.13;;;2.50;;
30307;SDS011;17114;52.314;8.910;2023-03-26T22:10:24;17.83;;;2.30;;
30307;SDS011;17114;52.314;8.910;2023-03-26T22:12:52;14.00;;;2.55;;
30307;SDS011;17114;52.314;8.910;2023-03-26T22:15:19;10.82;;;2.00;;
30307;SDS011;17114;52.314;8.910;2023-03-26T22:17:47;13.52;;;2.65;;